Time;durP1;ratioP1;P1;durP2;ratioP2;P2;SDS_P1;SDS_P2;PMS_P1;PMS_P2;Temp;Humidity;BMP_temperature;BMP_pressure;BME280_temperature;BME280_humidity;BME280_pressure;Samples;Min_cycle;Max_cycle;Signal;HPM_P1;HPM_P2
2021/12/20 00:00:21;;;;;;;15.55;1.98;;;6.40;1.00;;;;;;5081296;28;20020;-83
2021/12/20 00:02:51;;;;;;;10.25;2.45;;;6.40;1.00;;;;;;5080497;28;20484;-83
2021/12/20 00:05:19;;;;;;;11.98;1.67;;;6.40;1.00;;;;;;5080019;28;20115;-83
2021/12/20 00:07:44;;;;;;;17.67;2.33;;;6.40;1.00;;;;;;5080314;28;20095;-83
2021/12/20 00:10:10;;;;;;;11.35;1.67;;;6.40;1.00;;;;;;5098682;28;20028;-83
2021/12/20 00:12:36;;;;;;;18.13;2.00;;;6.40;1.00;;;;;;5099679;28;20035;-83
2021/12/20 00:15:02;;;;;;;11.45;1.83;;;6.30;1.00;;;;;;5081259;28;20100;-83
2021/12/20 00:17:27;;;;;;;15.13;1.98;;;6.30;1.00;;;;;;5099881;28;20032;-83
2021/12/20 00:19:53;;;;;;;13.73;1.77;;;6.30;1.00;;;;;;5083356;28;20055;-83
2021/12/20 00:22:19;;;;;;;7.85;1.88;;;6.30;1.00;;;;;;5082127;28;20023;-83
2021/12/20 00:24:44;;;;;;;9.95;1.98;;;6.40;1.00;;;;;;5098846;28;20020;-83
2021/12/20 00:27:12;;;;;;;11.07;1.42;;;6.40;1.00;;;;;;5099302;28;20016;-83
2021/12/20 00:29:38;;;;;;;15.93;1.80;;;6.30;1.00;;;;;;5080523;28;20092;-83
2021/12/20 00:32:04;;;;;;;8.43;1.80;;;6.30;1.00;;;;;;5079195;28;20051;-83
2021/12/20 00:34:30;;;;;;;10.77;1.90;;;6.20;1.00;;;;;;5097819;28;20028;-83
2021/12/20 00:37:04;;;;;;;15.30;1.80;;;6.20;1.00;;;;;;5079537;28;20380;-83
2021/12/20 00:42:15;;;;;;;16.52;2.47;;;6.20;2.20;;;;;;5099015;28;20035;-83
2021/12/20 00:44:41;;;;;;;13.73;2.03;;;6.20;6.30;;;;;;5080277;28;20074;-83
2021/12/20 00:47:06;;;;;;;14.70;1.92;;;6.20;8.60;;;;;;5079680;28;20024;-83
2021/12/20 00:49:32;;;;;;;20.23;2.22;;;6.20;3.90;;;;;;5077842;28;20119;-83
2021/12/20 00:51:58;;;;;;;15.60;2.60;;;6.20;11.80;;;;;;5096586;28;20098;-83
2021/12/20 00:54:24;;;;;;;13.15;1.83;;;6.20;22.00;;;;;;5079230;28;20042;-83
2021/12/20 00:56:50;;;;;;;13.60;1.77;;;6.20;17.60;;;;;;5079792;28;20024;-83
2021/12/20 00:59:16;;;;;;;14.52;2.38;;;6.20;14.70;;;;;;5080147;28;20244;-83
2021/12/20 01:01:41;;;;;;;13.02;2.58;;;6.20;8.20;;;;;;5098037;28;20020;-83
2021/12/20 01:04:08;;;;;;;16.83;1.73;;;6.20;6.80;;;;;;5079579;28;20020;-83
2021/12/20 01:06:34;;;;;;;11.10;1.70;;;6.20;7.60;;;;;;5097525;28;20099;-83
2021/12/20 01:09:00;;;;;;;14.23;1.70;;;6.10;6.10;;;;;;5078476;28;20073;-83
2021/12/20 01:11:27;;;;;;;16.65;1.85;;;6.20;1.40;;;;;;5079796;28;20020;-83
2021/12/20 01:13:54;;;;;;;12.07;2.00;;;6.30;1.00;;;;;;5080784;28;20042;-83
2021/12/20 01:16:29;;;;;;;15.70;1.25;;;6.30;1.00;;;;;;5080760;28;20077;-83
2021/12/20 01:18:55;;;;;;;11.15;1.90;;;6.30;1.00;;;;;;5080178;28;20083;-83
2021/12/20 01:21:21;;;;;;;13.02;2.10;;;6.30;1.00;;;;;;5099744;28;20024;-83
2021/12/20 01:23:46;;;;;;;12.43;1.73;;;6.30;1.00;;;;;;5098594;28;20559;-83
2021/12/20 01:26:12;;;;;;;17.40;3.67;;;6.30;1.00;;;;;;5097341;28;20161;-84
2021/12/20 01:28:42;;;;;;;31.73;2.55;;;6.30;1.00;;;;;;5097837;28;20028;-83
2021/12/20 01:31:08;;;;;;;15.43;1.92;;;6.30;1.00;;;;;;5080252;28;20058;-83
2021/12/20 01:33:33;;;;;;;14.80;1.92;;;6.20;1.00;;;;;;5080279;28;20066;-83
2021/12/20 01:35:59;;;;;;;10.02;2.03;;;6.20;9.10;;;;;;5079348;28;20042;-83
2021/12/20 01:38:24;;;;;;;14.73;2.15;;;6.20;4.30;;;;;;5098490;28;20063;-83
2021/12/20 01:40:50;;;;;;;9.82;2.30;;;6.20;10.80;;;;;;5079161;28;20458;-83
2021/12/20 01:43:17;;;;;;;9.82;1.35;;;6.20;3.40;;;;;;5079292;28;20115;-83
2021/12/20 01:45:47;;;;;;;7.85;1.05;;;6.20;5.60;;;;;;5079131;28;20020;-83
2021/12/20 01:48:15;;;;;;;9.45;1.83;;;6.20;2.00;;;;;;5078161;28;20035;-83
2021/12/20 01:53:22;;;;;;;7.63;1.30;;;6.30;1.00;;;;;;5095961;28;20036;-83
2021/12/20 01:55:49;;;;;;;9.82;1.50;;;6.30;1.00;;;;;;5097239;28;20024;-83
2021/12/20 01:58:15;;;;;;;7.85;1.00;;;6.30;1.00;;;;;;5079380;28;20062;-83
2021/12/20 02:03:25;;;;;;;4.80;0.95;;;6.40;1.00;;;;;;5096542;28;20494;-83
2021/12/20 02:05:55;;;;;;;8.75;1.02;;;6.30;1.00;;;;;;5096942;28;20193;-83
2021/12/20 02:08:24;;;;;;;5.75;1.15;;;6.30;1.00;;;;;;5094868;28;20028;-83
2021/12/20 02:10:53;;;;;;;9.25;1.02;;;6.30;1.00;;;;;;5078612;28;20030;-83
2021/12/20 02:13:20;;;;;;;10.00;0.98;;;6.40;1.00;;;;;;5097417;28;20027;-83
2021/12/20 02:15:46;;;;;;;9.07;1.00;;;6.40;1.00;;;;;;5080543;28;20063;-83
2021/12/20 02:18:12;;;;;;;4.72;0.90;;;6.40;1.00;;;;;;5080524;28;20032;-83
2021/12/20 02:20:38;;;;;;;5.03;1.35;;;6.40;1.00;;;;;;5097499;28;20426;-83
2021/12/20 02:23:06;;;;;;;11.85;1.00;;;6.40;1.00;;;;;;5097047;28;20028;-83
2021/12/20 02:25:32;;;;;;;14.32;1.52;;;6.40;1.00;;;;;;5097973;28;20033;-83
2021/12/20 02:28:05;;;;;;;5.60;1.10;;;6.40;1.00;;;;;;5097001;28;20107;-83
2021/12/20 02:38:19;;;;;;;4.60;1.08;;;6.40;1.00;;;;;;5098055;28;20028;-83
2021/12/20 02:40:46;;;;;;;7.97;1.05;;;6.40;1.00;;;;;;5080959;28;20069;-83
2021/12/20 02:43:15;;;;;;;5.50;0.63;;;6.40;1.00;;;;;;5083230;28;20048;-83
2021/12/20 02:45:42;;;;;;;7.53;1.00;;;6.40;1.00;;;;;;5083683;28;20365;-83
2021/12/20 02:48:07;;;;;;;7.05;0.95;;;6.40;1.00;;;;;;5081916;28;20036;-83
2021/12/20 02:50:33;;;;;;;4.22;0.60;;;6.50;1.00;;;;;;5099394;28;20027;-83
2021/12/20 02:52:59;;;;;;;8.02;0.70;;;6.50;1.00;;;;;;5080543;28;20023;-83
2021/12/20 02:55:24;;;;;;;7.22;1.17;;;6.40;1.00;;;;;;5100780;28;20025;-83
2021/12/20 02:57:50;;;;;;;3.05;0.75;;;6.40;1.00;;;;;;5101882;28;20028;-83
2021/12/20 03:00:16;;;;;;;9.35;1.42;;;6.40;1.00;;;;;;5102477;28;20056;-83
2021/12/20 03:02:41;;;;;;;5.32;1.00;;;6.40;1.00;;;;;;5102432;28;20110;-83
2021/12/20 03:05:08;;;;;;;8.75;1.38;;;6.40;1.00;;;;;;5082414;28;20035;-83
2021/12/20 03:07:42;;;;;;;9.02;0.98;;;6.50;1.00;;;;;;5100803;28;20031;-84
2021/12/20 03:10:09;;;;;;;5.68;1.00;;;6.50;1.00;;;;;;5100941;28;20145;-83
2021/12/20 03:12:34;;;;;;;6.45;1.13;;;6.50;1.00;;;;;;5099753;28;20024;-83
2021/12/20 03:15:11;;;;;;;6.75;0.85;;;6.50;1.00;;;;;;5098455;28;20027;-83
2021/12/20 03:17:37;;;;;;;5.45;1.10;;;6.50;1.00;;;;;;5084065;28;20020;-83
2021/12/20 03:20:03;;;;;;;6.07;0.63;;;6.50;1.00;;;;;;5101732;28;20031;-83
2021/12/20 03:22:29;;;;;;;5.20;0.50;;;6.50;1.00;;;;;;5100447;28;20024;-83
2021/12/20 03:24:54;;;;;;;5.07;0.82;;;6.50;1.00;;;;;;5082496;28;20042;-83
2021/12/20 03:27:20;;;;;;;14.13;2.55;;;6.50;1.00;;;;;;5081817;28;20173;-83
2021/12/20 03:29:46;;;;;;;4.85;0.75;;;6.50;1.00;;;;;;5098927;28;20032;-83
2021/12/20 03:32:12;;;;;;;6.88;1.10;;;6.50;1.00;;;;;;5082148;28;20024;-83
2021/12/20 03:34:38;;;;;;;8.88;1.15;;;6.40;1.00;;;;;;5100213;28;20017;-83
2021/12/20 03:37:03;;;;;;;9.10;0.88;;;6.40;1.00;;;;;;5100377;28;20096;-83
2021/12/20 03:39:29;;;;;;;6.75;0.70;;;6.40;1.00;;;;;;5100860;28;20021;-83
2021/12/20 03:41:55;;;;;;;7.10;0.82;;;6.40;1.00;;;;;;5100022;28;20031;-83
2021/12/20 03:44:21;;;;;;;3.95;0.77;;;6.40;1.00;;;;;;5099276;28;20476;-83
2021/12/20 03:46:47;;;;;;;7.85;0.75;;;6.40;1.00;;;;;;5081271;28;20415;-83
2021/12/20 03:49:12;;;;;;;3.05;0.47;;;6.40;1.00;;;;;;5098108;28;20031;-83
2021/12/20 03:51:38;;;;;;;7.68;0.80;;;6.40;1.00;;;;;;5097278;28;20028;-83
2021/12/20 03:54:05;;;;;;;4.78;0.68;;;6.40;1.00;;;;;;5079374;28;20422;-83
2021/12/20 03:56:30;;;;;;;7.82;0.70;;;6.30;1.00;;;;;;5099447;28;20042;-83
2021/12/20 03:58:56;;;;;;;7.82;1.33;;;6.20;1.00;;;;;;5081841;28;20406;-83
2021/12/20 04:01:22;;;;;;;2.42;0.60;;;6.10;1.00;;;;;;5100243;28;20036;-83
2021/12/20 04:03:49;;;;;;;2.53;0.43;;;6.20;1.00;;;;;;5099454;28;20024;-83
2021/12/20 04:06:15;;;;;;;4.07;0.90;;;6.10;1.00;;;;;;5081493;28;20023;-83
2021/12/20 04:08:41;;;;;;;4.47;0.38;;;6.10;1.00;;;;;;5079909;28;20028;-83
2021/12/20 04:11:08;;;;;;;3.00;0.20;;;6.10;1.00;;;;;;5080592;28;20020;-83
2021/12/20 04:13:34;;;;;;;2.65;0.28;;;6.00;1.00;;;;;;5099145;28;20035;-83
2021/12/20 04:16:00;;;;;;;4.05;0.65;;;6.00;1.00;;;;;;5099669;28;20511;-83
2021/12/20 04:18:27;;;;;;;5.00;0.50;;;5.90;1.00;;;;;;5081803;28;20047;-83
2021/12/20 04:20:53;;;;;;;4.22;0.55;;;5.80;1.00;;;;;;5099336;28;20502;-83
2021/12/20 04:23:19;;;;;;;4.25;0.52;;;5.80;1.00;;;;;;5099750;28;20055;-83
2021/12/20 04:25:44;;;;;;;3.72;0.60;;;5.70;1.00;;;;;;5101270;28;20028;-83
2021/12/20 04:28:11;;;;;;;9.55;1.02;;;5.60;1.00;;;;;;5098925;28;20307;-83
2021/12/20 04:30:36;;;;;;;3.00;0.55;;;5.50;1.00;;;;;;5100044;28;20505;-83
2021/12/20 04:33:03;;;;;;;5.95;1.38;;;5.30;4.30;;;;;;5079891;28;20471;-83
2021/12/20 04:35:29;;;;;;;3.97;0.70;;;5.20;10.80;;;;;;5099144;28;20024;-83
2021/12/20 04:37:56;;;;;;;5.68;0.68;;;5.00;22.50;;;;;;5081605;28;20054;-83
2021/12/20 04:40:22;;;;;;;5.50;0.70;;;4.90;36.20;;;;;;5100358;28;20024;-83
2021/12/20 04:42:53;;;;;;;7.30;0.90;;;4.80;42.80;;;;;;5099201;28;20380;-83
2021/12/20 04:45:19;;;;;;;2.60;0.60;;;4.70;46.70;;;;;;5081471;28;20055;-83
2021/12/20 04:47:45;;;;;;;4.18;0.57;;;4.70;66.10;;;;;;5079259;28;20050;-83
2021/12/20 04:50:11;;;;;;;5.05;0.77;;;4.60;64.80;;;;;;5079101;28;20426;-83
2021/12/20 04:52:36;;;;;;;4.13;0.65;;;4.40;72.60;;;;;;5097369;28;20024;-83
2021/12/20 04:55:06;;;;;;;5.32;0.65;;;4.20;99.90;;;;;;5079486;28;20023;-83
2021/12/20 04:57:32;;;;;;;1.30;0.45;;;4.00;99.90;;;;;;5081879;28;20544;-82
2021/12/20 04:59:58;;;;;;;8.18;0.60;;;3.80;99.90;;;;;;5081668;28;20028;-83
2021/12/20 05:02:24;;;;;;;3.45;0.70;;;3.70;99.90;;;;;;5099802;28;20386;-83
2021/12/20 05:04:50;;;;;;;4.95;0.77;;;3.60;99.90;;;;;;5079125;28;20555;-83
2021/12/20 05:07:16;;;;;;;2.83;0.50;;;3.50;99.90;;;;;;5098517;28;20411;-83
2021/12/20 05:09:42;;;;;;;5.88;0.60;;;3.60;99.90;;;;;;5099366;28;20035;-83
2021/12/20 05:12:12;;;;;;;7.20;0.90;;;3.60;99.90;;;;;;5099293;28;20024;-83
2021/12/20 05:14:44;;;;;;;2.90;0.67;;;3.60;99.90;;;;;;5081800;28;20028;-82
2021/12/20 05:17:12;;;;;;;3.42;0.43;;;3.60;99.90;;;;;;5099733;28;20362;-83
2021/12/20 05:19:40;;;;;;;5.40;0.95;;;3.60;99.90;;;;;;5082015;28;20024;-82
2021/12/20 05:22:05;;;;;;;4.40;0.50;;;3.70;99.90;;;;;;5081857;28;20541;-82
2021/12/20 05:24:31;;;;;;;4.57;0.50;;;3.60;99.90;;;;;;5081036;28;20016;-82
2021/12/20 05:26:57;;;;;;;2.65;0.70;;;3.70;99.90;;;;;;5082973;28;20387;-82
2021/12/20 05:29:24;;;;;;;4.70;1.00;;;3.70;99.90;;;;;;5077059;28;20455;-82
2021/12/20 05:31:50;;;;;;;5.75;0.55;;;3.80;99.90;;;;;;5066054;28;20388;-83
2021/12/20 05:34:16;;;;;;;6.10;0.93;;;3.80;99.90;;;;;;5096925;28;20032;-83
2021/12/20 05:36:41;;;;;;;3.17;0.82;;;3.80;99.90;;;;;;5093733;28;20284;-82
2021/12/20 05:39:13;;;;;;;4.28;0.50;;;3.80;99.90;;;;;;5080383;28;20020;-82
2021/12/20 05:41:39;;;;;;;3.58;0.63;;;3.80;99.90;;;;;;5078227;28;20028;-82
2021/12/20 05:44:05;;;;;;;4.72;1.15;;;3.80;99.90;;;;;;5083485;28;20040;-82
2021/12/20 05:46:31;;;;;;;7.10;1.20;;;3.80;99.90;;;;;;5079468;28;20373;-83
2021/12/20 05:48:57;;;;;;;7.20;1.25;;;3.80;99.90;;;;;;5080277;28;20062;-83
2021/12/20 05:51:22;;;;;;;3.30;0.50;;;3.80;99.90;;;;;;5076625;28;20489;-82
2021/12/20 05:53:48;;;;;;;4.35;0.95;;;3.80;99.90;;;;;;5073114;28;20016;-82
2021/12/20 05:56:14;;;;;;;4.65;0.77;;;3.90;99.90;;;;;;5098605;28;20013;-83
2021/12/20 05:58:40;;;;;;;5.13;0.80;;;3.80;99.90;;;;;;5080481;28;20027;-83
2021/12/20 06:01:05;;;;;;;6.30;0.70;;;3.80;99.90;;;;;;5099684;28;20020;-83
2021/12/20 06:03:31;;;;;;;6.78;1.10;;;3.80;99.90;;;;;;5075297;28;20494;-83
2021/12/20 06:05:57;;;;;;;3.75;0.52;;;3.70;99.90;;;;;;5074919;28;20062;-83
2021/12/20 06:08:22;;;;;;;7.20;0.77;;;3.70;99.90;;;;;;5079853;28;20032;-83
2021/12/20 06:10:48;;;;;;;5.90;0.90;;;3.80;99.90;;;;;;5098428;28;20020;-83
2021/12/20 06:13:13;;;;;;;8.05;2.22;;;3.80;99.90;;;;;;5099165;28;20017;-83
2021/12/20 06:15:39;;;;;;;5.53;0.70;;;3.80;99.90;;;;;;5099907;28;20031;-83
2021/12/20 06:18:05;;;;;;;7.28;1.85;;;3.90;99.90;;;;;;5101114;28;20032;-84
2021/12/20 06:20:30;;;;;;;2.15;0.70;;;4.00;99.90;;;;;;5082389;28;20030;-83
2021/12/20 06:22:56;;;;;;;4.40;0.60;;;4.00;99.90;;;;;;5079323;28;20480;-83
2021/12/20 06:25:21;;;;;;;3.10;0.68;;;4.10;99.90;;;;;;5079408;28;20020;-83
2021/12/20 06:27:47;;;;;;;6.47;0.70;;;4.10;99.90;;;;;;5079463;28;20052;-83
2021/12/20 06:30:14;;;;;;;5.25;0.85;;;4.10;99.90;;;;;;5078518;28;20020;-83
2021/12/20 06:32:41;;;;;;;6.85;0.90;;;4.10;99.90;;;;;;5076889;28;20515;-83
2021/12/20 06:35:08;;;;;;;7.53;0.77;;;4.10;99.90;;;;;;5094516;28;20454;-83
2021/12/20 06:37:34;;;;;;;5.43;0.90;;;4.10;99.90;;;;;;5076682;28;20020;-83
2021/12/20 06:40:00;;;;;;;4.90;1.00;;;4.10;99.90;;;;;;5095413;28;20028;-83
2021/12/20 06:42:26;;;;;;;6.45;0.90;;;4.00;99.90;;;;;;5096580;28;20031;-83
2021/12/20 06:44:52;;;;;;;2.63;0.52;;;4.10;99.90;;;;;;5097146;28;20027;-83
2021/12/20 06:47:18;;;;;;;3.95;0.90;;;4.10;99.90;;;;;;5074450;28;20028;-83
2021/12/20 06:49:44;;;;;;;3.28;0.98;;;4.10;99.90;;;;;;5060169;28;20111;-83
2021/12/20 06:52:10;;;;;;;5.03;0.85;;;4.00;99.90;;;;;;5060697;28;20053;-83
2021/12/20 06:54:36;;;;;;;8.95;1.13;;;4.00;99.90;;;;;;5079401;28;20024;-83
2021/12/20 06:57:02;;;;;;;4.68;0.57;;;4.00;99.90;;;;;;5060211;28;20064;-83
2021/12/20 06:59:28;;;;;;;5.95;1.10;;;3.90;99.90;;;;;;5090875;28;20025;-83
2021/12/20 07:01:53;;;;;;;5.40;1.05;;;3.90;99.90;;;;;;5102449;28;20024;-82
2021/12/20 07:04:19;;;;;;;8.52;1.20;;;4.00;99.90;;;;;;5095170;28;20077;-83
2021/12/20 07:06:45;;;;;;;5.55;0.95;;;3.90;99.90;;;;;;5093931;28;20083;-83
2021/12/20 07:09:11;;;;;;;5.75;1.25;;;4.00;99.90;;;;;;5093625;28;20107;-83
2021/12/20 07:11:37;;;;;;;4.72;1.30;;;3.90;99.90;;;;;;5076444;28;20081;-81
2021/12/20 07:14:03;;;;;;;11.13;2.00;;;3.80;99.90;;;;;;5067522;28;20025;-83
2021/12/20 07:16:32;;;;;;;8.70;2.83;;;3.80;99.90;;;;;;5056878;28;20110;-83
2021/12/20 07:18:58;;;;;;;5.57;1.65;;;3.70;99.90;;;;;;5057343;28;20050;-83
2021/12/20 07:21:24;;;;;;;7.40;2.45;;;3.70;99.90;;;;;;5074829;28;20017;-83
2021/12/20 07:23:49;;;;;;;9.07;2.20;;;3.60;99.90;;;;;;5091143;28;20125;-83
2021/12/20 07:26:15;;;;;;;5.35;2.05;;;3.60;99.90;;;;;;5093817;28;20073;-83
2021/12/20 07:28:42;;;;;;;3.92;1.23;;;3.60;99.90;;;;;;5097496;28;20036;-83
2021/12/20 07:31:09;;;;;;;3.10;0.93;;;3.60;99.90;;;;;;5078404;28;20056;-83
2021/12/20 07:33:34;;;;;;;6.35;1.40;;;3.70;99.90;;;;;;5079038;28;20043;-83
2021/12/20 07:36:00;;;;;;;6.15;1.52;;;3.70;99.90;;;;;;5078388;28;20023;-83
2021/12/20 07:38:25;;;;;;;5.78;1.55;;;3.70;99.90;;;;;;5079584;28;20391;-83
2021/12/20 07:40:51;;;;;;;6.00;1.17;;;3.80;99.90;;;;;;5079456;28;20028;-83
2021/12/20 07:43:18;;;;;;;4.32;0.88;;;3.80;99.90;;;;;;5079279;28;20058;-83
2021/12/20 07:45:47;;;;;;;4.15;1.30;;;3.80;99.90;;;;;;5078475;28;20490;-83
2021/12/20 07:48:13;;;;;;;2.47;0.70;;;3.80;99.90;;;;;;5076781;28;20123;-83
2021/12/20 07:50:39;;;;;;;6.53;1.20;;;3.90;99.90;;;;;;5077345;28;20499;-83
2021/12/20 07:53:05;;;;;;;4.18;0.90;;;3.90;99.90;;;;;;5095947;28;20048;-83
2021/12/20 07:55:30;;;;;;;6.63;0.98;;;3.90;99.90;;;;;;5072685;28;20016;-83
2021/12/20 07:57:57;;;;;;;6.80;1.23;;;3.80;99.90;;;;;;5073896;28;20023;-83
2021/12/20 08:00:23;;;;;;;5.82;0.80;;;3.80;99.90;;;;;;5098387;28;20039;-83
2021/12/20 08:02:49;;;;;;;7.13;1.15;;;3.90;99.90;;;;;;5097085;28;20429;-83
2021/12/20 08:05:15;;;;;;;5.93;1.23;;;3.80;99.90;;;;;;5063300;28;20283;-83
2021/12/20 08:07:41;;;;;;;4.07;1.30;;;3.90;99.90;;;;;;5080686;28;20024;-83
2021/12/20 08:10:08;;;;;;;6.45;1.25;;;4.00;99.90;;;;;;5094943;28;20335;-83
2021/12/20 08:12:35;;;;;;;6.53;1.25;;;4.10;99.90;;;;;;5090478;28;20546;-83
2021/12/20 08:15:00;;;;;;;5.22;1.05;;;4.00;99.90;;;;;;5079088;28;20153;-83
2021/12/20 08:17:26;;;;;;;11.18;2.92;;;4.10;99.90;;;;;;5065841;28;20075;-83
2021/12/20 08:19:52;;;;;;;6.15;1.75;;;4.20;99.90;;;;;;5096758;28;20032;-83
2021/12/20 08:22:17;;;;;;;6.25;1.60;;;4.20;99.90;;;;;;5096124;28;20016;-83
2021/12/20 08:24:43;;;;;;;5.90;1.63;;;4.30;99.90;;;;;;5069442;28;20057;-83
2021/12/20 08:27:08;;;;;;;7.63;1.33;;;4.40;99.90;;;;;;5076822;28;20036;-82
2021/12/20 08:29:34;;;;;;;7.00;1.65;;;4.40;99.90;;;;;;5083439;28;20024;-83
2021/12/20 08:32:01;;;;;;;7.22;1.55;;;4.50;99.90;;;;;;5096817;28;20016;-82
2021/12/20 08:34:28;;;;;;;9.57;1.40;;;4.60;99.90;;;;;;5096324;28;20020;-83
2021/12/20 08:36:55;;;;;;;7.15;1.08;;;4.60;99.90;;;;;;5066430;28;20054;-83
2021/12/20 08:39:21;;;;;;;8.32;1.48;;;4.70;99.60;;;;;;5068582;28;20059;-83
2021/12/20 08:41:46;;;;;;;6.75;1.25;;;4.80;97.00;;;;;;5059880;28;20066;-83
2021/12/20 08:44:13;;;;;;;7.13;1.67;;;4.90;99.90;;;;;;5062055;28;20387;-83
2021/12/20 08:46:39;;;;;;;8.90;1.60;;;4.90;79.40;;;;;;5054823;28;20059;-83
2021/12/20 08:49:04;;;;;;;9.82;1.55;;;5.00;73.20;;;;;;5068494;28;20059;-82
2021/12/20 08:51:30;;;;;;;5.18;1.05;;;5.00;71.50;;;;;;5092761;28;20426;-82
2021/12/20 08:53:56;;;;;;;8.65;1.33;;;5.10;63.80;;;;;;5082955;28;20017;-83
2021/12/20 08:56:22;;;;;;;7.72;1.25;;;5.10;84.90;;;;;;5078934;28;20073;-83
2021/12/20 08:58:47;;;;;;;5.60;1.35;;;5.20;38.50;;;;;;5083511;28;20029;-83
2021/12/20 09:01:14;;;;;;;9.07;1.35;;;5.30;25.30;;;;;;5087169;28;20090;-83
2021/12/20 09:03:39;;;;;;;9.25;1.65;;;5.40;13.60;;;;;;5072448;28;20362;-83
2021/12/20 09:06:05;;;;;;;7.18;1.67;;;5.50;23.60;;;;;;5059131;28;20031;-83
2021/12/20 09:08:31;;;;;;;8.55;1.92;;;5.50;35.70;;;;;;5077516;28;20059;-83
2021/12/20 09:10:57;;;;;;;5.30;1.00;;;5.60;48.90;;;;;;5060113;28;20024;-83
2021/12/20 09:13:23;;;;;;;6.55;1.25;;;5.60;45.70;;;;;;5059752;28;20024;-82
2021/12/20 09:15:49;;;;;;;4.88;0.80;;;5.80;51.70;;;;;;5082024;28;20080;-83
2021/12/20 09:18:15;;;;;;;7.88;1.35;;;5.90;17.90;;;;;;5061167;28;20028;-83
2021/12/20 09:20:41;;;;;;;11.68;2.38;;;6.00;1.60;;;;;;5057519;28;20317;-82
2021/12/20 09:23:08;;;;;;;3.78;0.85;;;6.10;1.00;;;;;;5057480;28;20535;-83
2021/12/20 09:25:36;;;;;;;4.43;1.02;;;6.20;1.00;;;;;;5075877;28;20111;-82
2021/12/20 09:28:05;;;;;;;6.50;1.63;;;6.30;5.60;;;;;;5056580;28;20139;-83
2021/12/20 09:30:31;;;;;;;7.43;1.67;;;6.40;16.30;;;;;;5085698;28;20165;-83
2021/12/20 09:32:57;;;;;;;9.88;3.92;;;6.60;23.10;;;;;;5078923;28;20031;-82
2021/12/20 09:35:23;;;;;;;13.43;3.30;;;6.80;25.70;;;;;;5074243;28;20396;-83
2021/12/20 09:37:51;;;;;;;6.68;2.00;;;6.70;15.30;;;;;;5074632;28;20031;-83
2021/12/20 09:40:26;;;;;;;10.75;2.75;;;6.80;18.00;;;;;;5076085;28;20112;-83
2021/12/20 09:42:54;;;;;;;6.05;1.55;;;6.90;2.00;;;;;;5059123;28;20178;-83
2021/12/20 09:45:21;;;;;;;7.15;1.55;;;7.10;1.00;;;;;;5058442;28;20117;-83
2021/12/20 09:47:48;;;;;;;7.82;1.15;;;7.10;1.00;;;;;;5057601;28;20353;-83
2021/12/20 09:50:15;;;;;;;6.78;1.45;;;7.30;1.00;;;;;;5081080;28;20092;-83
2021/12/20 09:52:44;;;;;;;7.43;1.08;;;7.30;1.00;;;;;;5092412;28;20027;-83
2021/12/20 09:55:13;;;;;;;9.90;1.40;;;7.40;1.00;;;;;;5074863;28;20030;-83
2021/12/20 09:57:42;;;;;;;7.70;1.38;;;7.50;1.00;;;;;;5094463;28;20532;-83
2021/12/20 10:00:10;;;;;;;6.55;1.20;;;7.50;1.00;;;;;;5093183;28;20490;-83
2021/12/20 10:02:36;;;;;;;8.32;1.40;;;7.40;1.00;;;;;;5091201;28;20063;-83
2021/12/20 10:05:03;;;;;;;6.25;3.58;;;7.40;1.00;;;;;;5091749;28;20344;-83
2021/12/20 10:07:29;;;;;;;8.65;3.38;;;7.40;1.00;;;;;;5091492;28;20024;-83
2021/12/20 10:09:55;;;;;;;12.50;4.65;;;7.40;1.00;;;;;;5073740;28;20123;-83
2021/12/20 10:12:26;;;;;;;11.90;4.72;;;7.40;1.00;;;;;;5094144;28;20020;-83
2021/12/20 10:15:10;;;;;;;8.20;4.03;;;7.50;1.00;;;;;;5076982;28;20081;-83
2021/12/20 10:17:58;;;;;;;7.78;3.10;;;7.60;1.00;;;;;;5077459;28;20023;-83
2021/12/20 10:20:26;;;;;;;7.75;2.63;;;7.70;1.00;;;;;;5078082;28;20057;-83
2021/12/20 10:22:53;;;;;;;8.20;2.55;;;7.80;1.00;;;;;;5077908;28;20115;-83
2021/12/20 10:25:28;;;;;;;5.55;1.83;;;7.80;1.00;;;;;;5096096;28;20054;-83
2021/12/20 10:28:03;;;;;;;9.40;2.35;;;7.90;1.00;;;;;;5094766;28;20052;-83
2021/12/20 10:30:32;;;;;;;9.30;1.30;;;7.90;1.00;;;;;;5091046;28;20033;-83
2021/12/20 10:32:58;;;;;;;8.85;1.60;;;8.00;1.00;;;;;;5072490;28;20020;-83
2021/12/20 10:35:28;;;;;;;8.07;2.03;;;8.00;1.00;;;;;;5077202;28;20050;-83
2021/12/20 10:37:55;;;;;;;9.43;3.47;;;8.10;1.00;;;;;;5057125;28;20137;-83
2021/12/20 10:40:22;;;;;;;6.03;1.60;;;8.10;1.00;;;;;;5084890;28;20106;-83
2021/12/20 10:42:53;;;;;;;9.20;1.75;;;8.10;1.00;;;;;;5078937;28;20530;-83
2021/12/20 10:45:20;;;;;;;4.88;1.00;;;8.10;1.00;;;;;;5086799;28;20016;-83
2021/12/20 10:47:52;;;;;;;9.10;1.95;;;8.20;1.00;;;;;;5059111;28;20083;-83
2021/12/20 10:50:32;;;;;;;4.75;1.10;;;8.20;1.00;;;;;;5072194;28;20333;-83
2021/12/20 10:53:23;;;;;;;4.07;0.93;;;8.40;1.00;;;;;;5054610;28;20517;-83
2021/12/20 10:55:54;;;;;;;;;;;8.50;1.00;;;;;;5080640;28;20059;-83
2021/12/20 10:58:30;;;;;;;4.97;1.13;;;8.50;1.00;;;;;;5073945;28;20398;-83
2021/12/20 11:04:08;;;;;;;4.10;1.15;;;8.70;1.00;;;;;;5057259;28;20277;-83
2021/12/20 11:06:58;;;;;;;4.95;0.90;;;8.80;1.00;;;;;;5077160;28;20020;-83
2021/12/20 11:09:30;;;;;;;4.17;1.13;;;8.90;1.00;;;;;;5088407;28;20545;-83
2021/12/20 11:12:01;;;;;;;7.63;1.50;;;8.80;1.00;;;;;;5097416;28;20032;-83
2021/12/20 11:14:30;;;;;;;5.10;1.20;;;8.80;1.00;;;;;;5088795;28;20074;-83
2021/12/20 11:16:58;;;;;;;8.40;1.40;;;8.60;1.00;;;;;;5081582;28;20024;-83
2021/12/20 11:19:34;;;;;;;5.53;1.20;;;8.40;1.00;;;;;;5080503;28;20021;-83
2021/12/20 11:22:03;;;;;;;6.85;1.30;;;8.30;1.00;;;;;;5078925;28;20031;-83
2021/12/20 11:24:39;;;;;;;4.93;1.10;;;8.10;1.00;;;;;;5081650;28;20019;-83
2021/12/20 11:27:08;;;;;;;8.00;1.08;;;7.80;1.00;;;;;;5077146;28;20149;-83
2021/12/20 11:29:36;;;;;;;5.30;0.88;;;7.70;1.00;;;;;;5085366;28;20029;-83
2021/12/20 11:32:03;;;;;;;7.80;1.10;;;7.60;1.00;;;;;;5066194;28;20143;-83
2021/12/20 11:34:29;;;;;;;7.10;1.80;;;7.50;1.00;;;;;;5075393;28;20021;-83
2021/12/20 11:36:56;;;;;;;7.70;1.25;;;7.40;1.00;;;;;;5076432;28;20035;-83
2021/12/20 11:39:22;;;;;;;8.82;3.80;;;7.30;1.00;;;;;;5060653;28;20040;-83
2021/12/20 11:41:48;;;;;;;8.35;1.63;;;7.10;1.00;;;;;;5076223;28;20016;-83
2021/12/20 11:44:17;;;;;;;6.53;1.40;;;7.00;1.00;;;;;;5076686;28;20056;-82
2021/12/20 11:47:03;;;;;;;15.27;6.70;;;7.00;1.00;;;;;;5092496;28;20361;-83
2021/12/20 11:49:29;;;;;;;6.05;1.02;;;6.90;1.00;;;;;;5096060;28;20036;-83
2021/12/20 11:52:04;;;;;;;8.23;1.02;;;6.80;1.00;;;;;;5095117;28;20035;-83
2021/12/20 11:54:43;;;;;;;9.77;1.75;;;6.70;1.00;;;;;;5095825;28;20077;-83
2021/12/20 11:57:30;;;;;;;6.22;2.30;;;6.70;1.00;;;;;;5095781;28;20016;-83
2021/12/20 11:59:58;;;;;;;7.65;1.30;;;6.70;1.00;;;;;;5096480;28;20372;-83
2021/12/20 12:02:39;;;;;;;5.63;1.30;;;6.60;1.00;;;;;;5077392;28;20020;-83
2021/12/20 12:05:08;;;;;;;7.07;1.17;;;6.60;1.00;;;;;;5076989;28;20595;-83
2021/12/20 12:07:35;;;;;;;5.80;1.23;;;6.50;1.00;;;;;;5095210;28;20129;-83
2021/12/20 12:10:06;;;;;;;8.85;1.80;;;6.50;1.00;;;;;;5095881;28;20027;-83
2021/12/20 12:12:34;;;;;;;14.18;1.58;;;6.50;1.00;;;;;;5095358;28;20031;-83
2021/12/20 12:15:08;;;;;;;6.07;1.15;;;6.50;1.00;;;;;;5075998;28;20039;-83
2021/12/20 12:18:02;;;;;;;12.75;1.30;;;6.30;1.00;;;;;;5077021;28;20059;-86
2021/12/20 12:20:51;;;;;;;10.93;2.08;;;6.40;1.00;;;;;;5075782;28;20024;-86
2021/12/20 12:23:27;;;;;;;8.02;1.20;;;6.40;1.00;;;;;;5076070;28;20067;-86
2021/12/20 12:25:56;;;;;;;6.85;1.63;;;6.30;1.00;;;;;;5075367;28;20063;-85
2021/12/20 12:28:27;;;;;;;7.28;1.17;;;6.30;1.00;;;;;;5094158;28;20032;-85
2021/12/20 12:30:59;;;;;;;7.80;2.00;;;6.30;1.00;;;;;;5075719;28;20058;-85
2021/12/20 12:33:31;;;;;;;9.15;1.55;;;6.20;1.00;;;;;;5094028;28;20395;-85
2021/12/20 12:36:00;;;;;;;6.95;1.42;;;6.30;1.00;;;;;;5075073;28;20039;-86
2021/12/20 12:38:34;;;;;;;8.40;1.73;;;6.20;1.00;;;;;;5093927;28;20046;-85
2021/12/20 12:41:07;;;;;;;20.30;1.70;;;6.20;1.00;;;;;;5075779;28;20032;-85
2021/12/20 12:44:02;;;;;;;9.98;1.10;;;6.10;1.00;;;;;;5094428;28;20512;-86
2021/12/20 12:46:41;;;;;;;6.70;1.52;;;6.00;1.00;;;;;;5075843;28;20173;-85
2021/12/20 12:49:21;;;;;;;10.00;2.75;;;6.10;1.00;;;;;;5075964;28;20059;-85
2021/12/20 12:52:13;;;;;;;9.18;1.27;;;6.10;1.00;;;;;;5056155;28;20484;-86
2021/12/20 12:55:02;;;;;;;7.55;1.15;;;6.10;1.00;;;;;;5056375;28;20020;-85
2021/12/20 12:57:30;;;;;;;6.20;1.02;;;6.00;1.00;;;;;;5056151;28;20399;-86
2021/12/20 12:59:58;;;;;;;13.85;1.67;;;6.20;1.00;;;;;;5060519;28;20095;-86
2021/12/20 13:02:34;;;;;;;10.43;1.70;;;6.30;1.00;;;;;;5076274;28;20020;-85
2021/12/20 13:05:05;;;;;;;7.40;1.30;;;6.30;1.00;;;;;;5095181;28;20142;-85
2021/12/20 13:07:32;;;;;;;12.35;2.10;;;6.30;1.00;;;;;;5076244;28;20020;-85
2021/12/20 13:10:03;;;;;;;9.07;1.70;;;6.40;1.00;;;;;;5095655;28;20455;-85
2021/12/20 13:15:12;;;;;;;12.65;1.50;;;6.50;1.00;;;;;;5097047;28;20023;-85
2021/12/20 13:17:42;;;;;;;10.55;1.45;;;6.30;1.00;;;;;;5073535;28;20084;-83
2021/12/20 13:20:22;;;;;;;;;;;6.20;1.00;;;;;;5059384;28;20027;-83
2021/12/20 13:22:57;;;;;;;14.98;1.73;;;6.10;1.00;;;;;;5078148;28;20546;-83
2021/12/20 13:25:33;;;;;;;12.38;1.65;;;6.00;1.00;;;;;;5061899;28;20028;-83
2021/12/20 13:27:58;;;;;;;10.63;1.98;;;5.90;1.00;;;;;;5080891;28;20020;-83